Time;durP1;ratioP1;P1;durP2;ratioP2;P2;SDS_P1;SDS_P2;PMS_P1;PMS_P2;Temp;Humidity;BMP_temperature;BMP_pressure;BME280_temperature;BME280_humidity;BME280_pressure;Samples;Min_cycle;Max_cycle;Signal;HPM_P1;HPM_P2
2023/07/24 00:00:30;;;;;;;10.15;6.78;;;17.30;99.90;;;;;;5011214;28;20038;-81
2023/07/24 00:02:56;;;;;;;9.50;6.63;;;17.30;99.90;;;;;;4995633;28;20019;-77
2023/07/24 00:05:21;;;;;;;8.95;6.57;;;17.30;99.90;;;;;;5006638;28;20022;-80
2023/07/24 00:07:47;;;;;;;8.82;6.40;;;17.30;99.90;;;;;;5000222;28;20479;-77
2023/07/24 00:10:13;;;;;;;11.40;5.75;;;17.30;99.90;;;;;;5004930;28;20022;-80
2023/07/24 00:12:38;;;;;;;7.68;5.90;;;17.20;99.90;;;;;;5001865;28;20109;-80
2023/07/24 00:15:04;;;;;;;11.82;6.35;;;17.20;99.90;;;;;;5006528;28;20034;-80
2023/07/24 00:17:30;;;;;;;10.73;6.35;;;17.30;99.90;;;;;;5010756;28;20018;-80
2023/07/24 00:19:55;;;;;;;8.50;6.30;;;17.30;99.90;;;;;;5009538;28;20124;-77
2023/07/24 00:22:21;;;;;;;11.80;6.38;;;17.20;99.90;;;;;;5007673;28;20557;-80
2023/07/24 00:24:47;;;;;;;6.68;5.97;;;17.20;99.90;;;;;;5007756;28;20040;-77
2023/07/24 00:27:13;;;;;;;9.80;6.35;;;17.20;99.90;;;;;;5002659;28;20064;-80
2023/07/24 00:29:39;;;;;;;7.50;5.40;;;17.20;99.90;;;;;;4997273;28;20475;-79
2023/07/24 00:32:05;;;;;;;8.85;5.35;;;17.20;99.90;;;;;;5002044;28;20059;-80
2023/07/24 00:34:30;;;;;;;8.85;6.32;;;17.10;99.90;;;;;;5004265;28;20022;-79
2023/07/24 00:36:56;;;;;;;9.23;5.88;;;17.10;99.90;;;;;;5000510;28;20019;-77
2023/07/24 00:39:22;;;;;;;9.88;5.18;;;17.00;99.90;;;;;;5006797;28;20025;-77
2023/07/24 00:41:47;;;;;;;10.15;5.43;;;17.00;99.90;;;;;;5008584;28;20436;-80
2023/07/24 00:44:13;;;;;;;9.52;5.97;;;17.00;99.90;;;;;;4999541;28;20025;-80
2023/07/24 00:46:38;;;;;;;7.38;5.95;;;16.90;99.90;;;;;;4997111;28;20395;-80
2023/07/24 00:49:04;;;;;;;7.63;5.57;;;16.90;99.90;;;;;;5005643;28;20042;-76
2023/07/24 00:51:30;;;;;;;8.52;5.95;;;17.00;99.90;;;;;;5008464;28;20053;-80
2023/07/24 00:53:59;;;;;;;7.95;5.75;;;17.00;99.90;;;;;;4999956;28;20023;-77
2023/07/24 00:56:26;;;;;;;7.88;5.35;;;17.00;99.90;;;;;;5001388;28;20491;-80
2023/07/24 00:58:55;;;;;;;6.30;5.25;;;17.10;99.90;;;;;;5001961;28;20467;-77
2023/07/24 01:01:21;;;;;;;7.85;5.60;;;17.10;99.90;;;;;;5002047;28;20030;-78
2023/07/24 01:03:47;;;;;;;8.77;5.90;;;17.20;99.90;;;;;;5001581;28;20715;-80
2023/07/24 01:06:12;;;;;;;7.28;5.70;;;17.20;99.90;;;;;;4998386;28;20026;-77
2023/07/24 01:08:38;;;;;;;7.90;5.43;;;17.20;99.90;;;;;;5007493;28;20049;-77
2023/07/24 01:11:11;;;;;;;7.90;5.50;;;17.30;99.90;;;;;;5010481;28;20508;-80
2023/07/24 01:13:43;;;;;;;6.40;5.00;;;17.40;99.90;;;;;;5009430;28;20045;-80
2023/07/24 01:16:14;;;;;;;7.55;5.28;;;17.40;99.90;;;;;;5007882;28;20037;-80
2023/07/24 01:18:42;;;;;;;5.22;4.60;;;17.50;99.90;;;;;;4999461;28;20014;-80
2023/07/24 01:21:11;;;;;;;7.97;6.13;;;17.60;99.90;;;;;;5004715;28;20021;-77
2023/07/24 01:23:42;;;;;;;7.20;5.28;;;17.60;99.90;;;;;;4999055;28;20022;-77
2023/07/24 01:26:08;;;;;;;9.55;4.82;;;17.60;99.90;;;;;;4999569;28;20033;-77
2023/07/24 01:28:33;;;;;;;8.35;5.00;;;17.60;99.90;;;;;;4997628;28;20043;-76
2023/07/24 01:30:59;;;;;;;8.80;5.40;;;17.70;99.90;;;;;;5005336;28;20049;-77
2023/07/24 01:33:25;;;;;;;7.68;5.32;;;17.70;99.90;;;;;;5002009;28;20027;-77
2023/07/24 01:35:57;;;;;;;9.45;5.38;;;17.70;99.90;;;;;;5012689;28;20118;-77
2023/07/24 01:38:25;;;;;;;7.93;5.15;;;17.80;99.90;;;;;;5009017;28;20014;-80
2023/07/24 01:40:52;;;;;;;6.20;5.38;;;17.80;99.90;;;;;;5007107;28;20089;-80
2023/07/24 01:43:18;;;;;;;7.95;5.18;;;17.70;99.90;;;;;;5008408;28;20030;-77
2023/07/24 01:45:43;;;;;;;6.60;5.68;;;17.70;99.90;;;;;;5009829;28;20037;-77
2023/07/24 01:48:09;;;;;;;6.35;5.25;;;17.60;99.90;;;;;;5005631;28;20022;-79
2023/07/24 01:50:35;;;;;;;9.35;5.97;;;17.60;99.90;;;;;;5009004;28;20491;-80
2023/07/24 01:53:00;;;;;;;6.97;5.30;;;17.60;99.90;;;;;;4998014;28;20018;-77
2023/07/24 01:55:26;;;;;;;6.30;5.10;;;17.60;99.90;;;;;;5003522;28;20026;-79
2023/07/24 01:57:51;;;;;;;10.07;5.28;;;17.60;99.90;;;;;;5006834;28;20021;-77
2023/07/24 02:00:17;;;;;;;8.15;5.68;;;17.60;99.90;;;;;;5015634;28;20456;-80
2023/07/24 02:02:43;;;;;;;7.45;5.07;;;17.50;99.90;;;;;;5014849;28;20028;-79
2023/07/24 02:05:09;;;;;;;6.32;4.97;;;17.50;99.90;;;;;;5014464;28;20030;-77
2023/07/24 02:07:34;;;;;;;6.72;5.00;;;17.50;99.90;;;;;;5015622;28;20018;-77
2023/07/24 02:10:00;;;;;;;6.47;5.65;;;17.40;99.90;;;;;;5005976;28;20369;-78
2023/07/24 02:12:26;;;;;;;7.55;5.28;;;17.40;99.90;;;;;;5013189;28;20113;-81
2023/07/24 02:14:52;;;;;;;6.50;5.20;;;17.40;99.90;;;;;;5015064;28;20033;-80
2023/07/24 02:17:18;;;;;;;9.73;5.72;;;17.40;99.90;;;;;;5003048;28;20018;-80
2023/07/24 02:19:44;;;;;;;9.45;5.88;;;17.40;99.90;;;;;;5013874;28;20382;-77
2023/07/24 02:22:10;;;;;;;7.18;5.60;;;17.40;99.90;;;;;;5003589;28;20106;-80
2023/07/24 02:24:36;;;;;;;7.97;5.32;;;17.30;99.90;;;;;;5028765;28;20080;-77
2023/07/24 02:27:01;;;;;;;7.75;5.47;;;17.30;99.90;;;;;;5015960;28;20078;-77
2023/07/24 02:29:27;;;;;;;8.18;6.00;;;17.30;99.90;;;;;;5009051;28;20480;-77
2023/07/24 02:31:54;;;;;;;7.65;5.35;;;17.20;99.90;;;;;;5006522;28;20033;-80
2023/07/24 02:34:24;;;;;;;8.38;5.40;;;17.20;99.90;;;;;;5009706;28;20020;-77
2023/07/24 02:36:50;;;;;;;8.80;5.53;;;17.20;99.90;;;;;;5004841;28;20033;-80
2023/07/24 02:39:15;;;;;;;8.02;5.50;;;17.10;99.90;;;;;;5015130;28;20109;-77
2023/07/24 02:41:41;;;;;;;6.50;5.60;;;17.10;99.90;;;;;;5016283;28;20105;-77
2023/07/24 02:44:06;;;;;;;10.18;5.93;;;17.00;99.90;;;;;;5013470;28;20150;-79
2023/07/24 02:46:32;;;;;;;8.50;5.60;;;17.00;99.90;;;;;;5011386;28;20418;-77
2023/07/24 02:48:58;;;;;;;6.93;5.38;;;17.00;99.90;;;;;;5009408;28;20121;-79
2023/07/24 02:51:23;;;;;;;8.00;5.45;;;17.00;99.90;;;;;;5011829;28;20033;-80
2023/07/24 02:53:49;;;;;;;7.95;5.10;;;16.90;99.90;;;;;;5014092;28;20021;-77
2023/07/24 02:56:14;;;;;;;6.75;5.18;;;16.80;99.90;;;;;;5015565;28;20038;-80
2023/07/24 02:58:40;;;;;;;8.90;6.07;;;16.80;99.90;;;;;;5011922;28;20022;-77
2023/07/24 03:01:07;;;;;;;6.97;5.43;;;16.80;99.90;;;;;;5014103;28;20126;-77
2023/07/24 03:03:33;;;;;;;10.13;6.20;;;16.70;99.90;;;;;;5015195;28;20070;-80
2023/07/24 03:05:59;;;;;;;6.80;5.63;;;16.70;99.90;;;;;;5014261;28;20402;-81
2023/07/24 03:08:25;;;;;;;8.98;5.78;;;16.70;99.90;;;;;;5015372;28;20018;-81
2023/07/24 03:10:50;;;;;;;6.43;4.68;;;16.60;99.90;;;;;;5012862;28;20030;-77
2023/07/24 03:13:16;;;;;;;7.82;6.15;;;16.60;99.90;;;;;;4999015;28;20029;-80
2023/07/24 03:15:41;;;;;;;7.78;5.70;;;16.60;99.90;;;;;;5011023;28;20075;-80
2023/07/24 03:18:07;;;;;;;8.27;6.18;;;16.60;99.90;;;;;;5008885;28;20044;-80
2023/07/24 03:20:32;;;;;;;8.75;5.80;;;16.50;99.90;;;;;;5012203;28;20073;-81
2023/07/24 03:22:58;;;;;;;9.73;6.50;;;16.50;99.90;;;;;;5009074;28;20026;-77
2023/07/24 03:25:24;;;;;;;12.43;6.60;;;16.50;99.90;;;;;;5009631;28;20026;-80
2023/07/24 03:27:49;;;;;;;7.38;5.53;;;16.50;99.90;;;;;;5010591;28;20036;-80
2023/07/24 03:30:15;;;;;;;6.85;5.10;;;16.50;99.90;;;;;;5007805;28;20048;-80
2023/07/24 03:32:40;;;;;;;11.75;6.18;;;16.50;99.90;;;;;;5010439;28;20131;-77
2023/07/24 03:35:07;;;;;;;9.55;5.93;;;16.50;99.90;;;;;;5008971;28;20046;-77
2023/07/24 03:37:34;;;;;;;9.23;5.85;;;16.50;99.90;;;;;;4999331;28;20026;-81
2023/07/24 03:40:00;;;;;;;10.48;6.45;;;16.50;99.90;;;;;;5005054;28;20033;-79
2023/07/24 03:42:31;;;;;;;8.88;6.75;;;16.50;99.90;;;;;;5005499;28;20053;-77
2023/07/24 03:44:57;;;;;;;8.85;6.30;;;16.50;99.90;;;;;;5012092;28;20026;-77
2023/07/24 03:47:24;;;;;;;8.88;6.28;;;16.50;99.90;;;;;;5009589;28;20023;-77
2023/07/24 03:49:50;;;;;;;7.70;6.90;;;16.50;99.90;;;;;;5011663;28;20049;-77
2023/07/24 03:52:16;;;;;;;9.50;6.90;;;16.50;99.90;;;;;;5008778;28;20021;-80
2023/07/24 03:54:41;;;;;;;8.82;6.75;;;16.50;99.90;;;;;;5010128;28;20399;-77
2023/07/24 03:57:07;;;;;;;7.28;6.10;;;16.40;99.90;;;;;;5011557;28;20049;-77
2023/07/24 03:59:33;;;;;;;8.90;6.50;;;16.50;99.90;;;;;;4999938;28;20029;-79
2023/07/24 04:01:58;;;;;;;7.00;5.63;;;16.50;99.90;;;;;;5011017;28;20119;-79
2023/07/24 04:04:24;;;;;;;10.50;7.30;;;16.60;99.90;;;;;;5009951;28;20029;-79
2023/07/24 04:06:50;;;;;;;9.73;6.65;;;16.70;99.90;;;;;;5010186;28;20513;-79
2023/07/24 04:09:15;;;;;;;13.65;7.07;;;16.80;99.90;;;;;;5010491;28;20014;-79
2023/07/24 04:11:42;;;;;;;12.20;6.63;;;16.90;99.90;;;;;;5009978;28;20071;-79
2023/07/24 04:14:08;;;;;;;11.38;6.55;;;16.90;99.90;;;;;;5009629;28;20036;-80
2023/07/24 04:16:34;;;;;;;10.68;6.50;;;17.00;99.90;;;;;;5008208;28;20026;-80
2023/07/24 04:18:59;;;;;;;12.02;6.38;;;17.20;99.90;;;;;;5007838;28;20072;-80
2023/07/24 04:21:25;;;;;;;8.93;6.80;;;17.40;99.90;;;;;;5009004;28;20028;-80
2023/07/24 04:23:50;;;;;;;7.75;5.38;;;17.60;99.90;;;;;;5009842;28;20061;-80
2023/07/24 04:26:16;;;;;;;7.75;6.05;;;17.80;99.90;;;;;;5009302;28;20038;-78
2023/07/24 04:28:41;;;;;;;7.90;6.35;;;17.90;99.90;;;;;;5008726;28;20046;-81
2023/07/24 04:31:07;;;;;;;7.88;5.85;;;18.00;99.90;;;;;;5010600;28;20022;-81
2023/07/24 04:33:33;;;;;;;9.73;6.88;;;18.20;99.90;;;;;;5003302;28;20114;-79
2023/07/24 04:35:58;;;;;;;9.00;6.15;;;18.20;99.90;;;;;;5009873;28;20058;-77
2023/07/24 04:38:24;;;;;;;10.23;5.78;;;18.30;99.90;;;;;;5010294;28;20029;-77
2023/07/24 04:40:49;;;;;;;8.55;6.50;;;18.30;99.90;;;;;;5003322;28;20033;-79
2023/07/24 04:43:15;;;;;;;15.25;6.78;;;18.40;99.90;;;;;;5008941;28;20026;-79
2023/07/24 04:45:40;;;;;;;10.10;6.60;;;18.50;99.90;;;;;;5010306;28;20026;-77
2023/07/24 04:48:06;;;;;;;9.45;6.15;;;18.60;99.90;;;;;;5009249;28;20022;-78
2023/07/24 04:50:32;;;;;;;8.27;5.97;;;18.60;99.90;;;;;;5009490;28;20064;-77
2023/07/24 04:52:58;;;;;;;7.95;6.28;;;18.60;99.90;;;;;;5008835;28;20053;-77
2023/07/24 04:55:24;;;;;;;8.75;6.45;;;18.60;99.90;;;;;;4997589;28;20488;-75
2023/07/24 04:57:49;;;;;;;10.00;6.78;;;18.60;99.90;;;;;;5009997;28;20101;-77
2023/07/24 05:00:15;;;;;;;8.98;6.85;;;18.60;99.90;;;;;;5006133;28;20113;-79
2023/07/24 05:02:41;;;;;;;8.27;6.03;;;18.60;99.90;;;;;;5003554;28;20403;-77
2023/07/24 05:05:07;;;;;;;9.68;6.72;;;18.70;99.90;;;;;;5004831;28;20026;-77
2023/07/24 05:07:32;;;;;;;8.32;6.72;;;18.80;99.90;;;;;;5007794;28;20022;-80
2023/07/24 05:09:58;;;;;;;9.05;6.25;;;18.90;99.90;;;;;;5009138;28;20022;-79
2023/07/24 05:12:24;;;;;;;9.38;6.10;;;19.10;99.90;;;;;;5001613;28;20392;-79
2023/07/24 05:14:50;;;;;;;7.63;6.20;;;19.20;99.90;;;;;;5002549;28;20031;-80
2023/07/24 05:17:15;;;;;;;7.22;5.40;;;19.50;99.90;;;;;;5003778;28;20018;-80
2023/07/24 05:19:41;;;;;;;7.85;6.20;;;19.60;99.90;;;;;;5001569;28;20056;-80
2023/07/24 05:22:07;;;;;;;12.55;8.70;;;19.70;99.90;;;;;;5005657;28;20029;-80
2023/07/24 05:24:33;;;;;;;10.88;7.72;;;19.90;99.90;;;;;;5008293;28;20029;-78
2023/07/24 05:26:59;;;;;;;11.15;7.45;;;20.00;99.90;;;;;;5008078;28;20072;-76
2023/07/24 05:29:24;;;;;;;6.95;6.20;;;20.20;99.90;;;;;;5008414;28;20053;-78
2023/07/24 05:31:50;;;;;;;9.90;6.13;;;20.30;99.90;;;;;;5002832;28;20441;-79
2023/07/24 05:34:15;;;;;;;7.78;5.75;;;20.40;99.90;;;;;;4994630;28;20022;-79
2023/07/24 05:36:41;;;;;;;8.63;6.40;;;20.60;99.90;;;;;;5005973;28;20037;-77
2023/07/24 05:39:07;;;;;;;8.60;6.57;;;20.70;99.90;;;;;;5015587;28;20018;-77
2023/07/24 05:41:32;;;;;;;7.60;5.93;;;20.80;99.90;;;;;;5008093;28;20049;-75
2023/07/24 05:43:58;;;;;;;6.68;5.50;;;20.90;99.90;;;;;;5006675;28;20041;-80
2023/07/24 05:46:23;;;;;;;9.80;6.43;;;21.00;99.90;;;;;;4998402;28;20122;-76
2023/07/24 05:48:49;;;;;;;10.80;7.22;;;21.10;99.90;;;;;;5004902;28;20057;-75
2023/07/24 05:51:15;;;;;;;9.02;6.43;;;21.20;99.90;;;;;;5007940;28;20030;-76
2023/07/24 05:53:40;;;;;;;11.82;6.50;;;21.30;99.90;;;;;;5007885;28;20029;-77
2023/07/24 05:56:06;;;;;;;10.65;7.20;;;21.40;99.90;;;;;;5008768;28;20415;-77
2023/07/24 05:58:31;;;;;;;9.68;7.15;;;21.50;99.90;;;;;;5006822;28;20029;-76
2023/07/24 06:00:57;;;;;;;10.73;6.68;;;21.50;99.90;;;;;;5007419;28;20180;-77
2023/07/24 06:03:24;;;;;;;12.88;7.00;;;21.60;99.90;;;;;;5009114;28;20022;-77
2023/07/24 06:05:54;;;;;;;11.77;6.45;;;21.70;99.90;;;;;;5008541;28;20030;-77
2023/07/24 06:08:20;;;;;;;8.35;6.60;;;21.70;99.90;;;;;;5001580;28;20033;-78
2023/07/24 06:10:48;;;;;;;9.35;6.38;;;21.90;99.90;;;;;;4999324;28;20030;-77
2023/07/24 06:13:14;;;;;;;8.05;6.20;;;22.10;99.90;;;;;;5008534;28;20142;-77
2023/07/24 06:15:40;;;;;;;11.25;6.95;;;22.30;98.70;;;;;;5009331;28;20034;-76
2023/07/24 06:18:06;;;;;;;11.00;6.63;;;22.50;99.90;;;;;;5008125;28;20032;-79
2023/07/24 06:20:31;;;;;;;8.18;5.80;;;22.50;99.00;;;;;;5002680;28;20056;-77
2023/07/24 06:22:57;;;;;;;9.02;6.85;;;22.40;99.90;;;;;;5005702;28;20025;-78
2023/07/24 06:25:23;;;;;;;9.82;6.40;;;22.50;99.90;;;;;;5005835;28;20026;-77
2023/07/24 06:27:49;;;;;;;8.82;7.05;;;22.50;99.90;;;;;;5007506;28;20033;-77
2023/07/24 06:30:15;;;;;;;7.35;5.93;;;22.60;99.90;;;;;;5002863;28;20026;-77
2023/07/24 06:32:40;;;;;;;10.05;6.25;;;22.70;99.90;;;;;;4996482;28;20438;-78
2023/07/24 06:35:06;;;;;;;11.45;6.30;;;22.80;99.90;;;;;;5006485;28;20042;-77
2023/07/24 06:37:32;;;;;;;11.35;6.75;;;23.00;99.90;;;;;;5006942;28;21480;-78
2023/07/24 06:39:57;;;;;;;7.90;6.35;;;23.20;99.90;;;;;;5008232;28;20060;-78
2023/07/24 06:42:23;;;;;;;11.30;6.70;;;23.30;95.90;;;;;;5008056;28;20018;-78
2023/07/24 06:44:48;;;;;;;7.70;6.20;;;23.40;97.20;;;;;;5007819;28;20053;-77
2023/07/24 06:47:14;;;;;;;8.75;5.80;;;23.40;94.80;;;;;;5011993;28;20029;-77
2023/07/24 06:49:40;;;;;;;9.57;6.15;;;23.60;96.10;;;;;;5011150;28;20503;-78
2023/07/24 06:52:05;;;;;;;9.68;5.63;;;23.80;94.20;;;;;;5012329;28;20034;-78
2023/07/24 06:54:31;;;;;;;13.18;6.32;;;23.80;84.40;;;;;;5010881;28;20077;-78
2023/07/24 06:56:57;;;;;;;6.68;5.53;;;24.00;83.00;;;;;;5012491;28;20026;-78
2023/07/24 06:59:23;;;;;;;11.43;6.70;;;24.00;81.90;;;;;;5012286;28;20029;-78
2023/07/24 07:01:49;;;;;;;6.65;5.60;;;24.20;81.50;;;;;;5011117;28;20095;-78
2023/07/24 07:04:14;;;;;;;8.95;5.78;;;24.20;79.80;;;;;;5010824;28;20467;-78
2023/07/24 07:06:54;;;;;;;10.00;5.85;;;24.30;78.10;;;;;;5012411;28;20467;-77
2023/07/24 07:09:20;;;;;;;6.63;5.75;;;24.50;77.90;;;;;;5012170;28;20026;-78
2023/07/24 07:11:45;;;;;;;7.88;6.43;;;24.60;76.60;;;;;;5010472;28;20022;-77
2023/07/24 07:14:12;;;;;;;7.22;4.82;;;24.60;74.60;;;;;;5007437;28;20049;-78
2023/07/24 07:16:38;;;;;;;7.88;6.18;;;24.80;75.00;;;;;;4991674;28;20530;-78
2023/07/24 07:19:03;;;;;;;8.52;6.28;;;25.00;76.10;;;;;;5010853;28;20022;-78
2023/07/24 07:21:29;;;;;;;8.40;5.38;;;25.30;74.50;;;;;;5003637;28;20502;-78
2023/07/24 07:23:55;;;;;;;7.95;5.70;;;25.40;69.90;;;;;;5003837;28;20487;-79
2023/07/24 07:26:22;;;;;;;7.03;5.15;;;25.50;70.10;;;;;;5010014;28;20034;-79
2023/07/24 07:28:47;;;;;;;9.30;5.45;;;25.70;69.10;;;;;;5008193;28;20018;-78
2023/07/24 07:31:13;;;;;;;9.80;5.10;;;25.90;67.40;;;;;;4999560;28;20052;-78
2023/07/24 07:33:38;;;;;;;7.72;5.65;;;26.00;65.80;;;;;;5005553;28;20045;-78
2023/07/24 07:36:05;;;;;;;8.43;5.10;;;26.10;65.80;;;;;;5001902;28;20098;-79
2023/07/24 07:38:31;;;;;;;7.78;4.57;;;26.20;63.20;;;;;;5010609;28;20030;-79
2023/07/24 07:40:57;;;;;;;8.05;5.05;;;26.30;61.10;;;;;;5010423;28;20066;-78
2023/07/24 07:43:23;;;;;;;7.05;5.28;;;26.40;58.90;;;;;;5009946;28;20109;-79
2023/07/24 07:45:48;;;;;;;7.82;4.93;;;26.30;57.10;;;;;;5010079;28;20127;-79
2023/07/24 07:48:14;;;;;;;5.78;5.18;;;26.30;56.80;;;;;;5008611;28;20037;-79
2023/07/24 07:50:40;;;;;;;14.43;4.80;;;26.10;56.60;;;;;;5008957;28;20487;-77
2023/07/24 07:53:06;;;;;;;9.88;5.15;;;25.80;55.60;;;;;;5003630;28;20133;-77
2023/07/24 07:55:32;;;;;;;6.68;5.10;;;25.80;55.10;;;;;;5003315;28;20117;-77
2023/07/24 07:57:58;;;;;;;8.65;5.25;;;26.00;56.70;;;;;;5006403;28;20044;-78
2023/07/24 08:00:23;;;;;;;7.78;4.72;;;25.90;56.40;;;;;;5006354;28;20472;-78
2023/07/24 08:02:49;;;;;;;7.13;4.80;;;26.10;56.40;;;;;;5007306;28;20462;-78
2023/07/24 08:05:15;;;;;;;8.93;5.25;;;26.20;55.60;;;;;;5007625;28;20026;-77
2023/07/24 08:07:41;;;;;;;6.70;4.82;;;26.30;57.50;;;;;;5005850;28;20446;-78
2023/07/24 08:10:07;;;;;;;6.57;5.15;;;26.50;56.90;;;;;;5009402;28;20014;-78
2023/07/24 08:12:33;;;;;;;7.72;5.07;;;26.50;57.20;;;;;;5003481;28;20069;-78
2023/07/24 08:14:59;;;;;;;8.40;5.03;;;26.50;56.90;;;;;;5006481;28;20026;-78
2023/07/24 08:17:25;;;;;;;7.10;4.82;;;26.50;55.00;;;;;;5006088;28;20445;-78
2023/07/24 08:19:50;;;;;;;6.97;4.75;;;26.50;55.00;;;;;;5005200;28;20026;-78
2023/07/24 08:22:16;;;;;;;6.03;4.68;;;26.50;54.30;;;;;;5004774;28;20018;-77
2023/07/24 08:24:42;;;;;;;6.60;5.03;;;26.50;54.70;;;;;;5006192;28;20034;-78
2023/07/24 08:27:07;;;;;;;6.65;4.60;;;26.10;54.60;;;;;;5007989;28;20022;-78
2023/07/24 08:29:35;;;;;;;8.60;4.93;;;26.20;54.70;;;;;;5010028;28;20017;-78
2023/07/24 08:32:01;;;;;;;6.78;5.13;;;26.60;55.90;;;;;;5008804;28;20030;-78
2023/07/24 08:34:26;;;;;;;6.90;5.03;;;26.60;53.70;;;;;;5004707;28;20041;-78
2023/07/24 08:36:55;;;;;;;6.38;5.10;;;26.70;52.40;;;;;;5004257;28;20472;-79
2023/07/24 08:39:20;;;;;;;7.68;4.90;;;27.00;53.30;;;;;;4998495;28;20034;-77
2023/07/24 08:41:46;;;;;;;7.93;5.05;;;27.40;53.10;;;;;;5007604;28;20112;-78
2023/07/24 08:44:12;;;;;;;9.00;4.80;;;27.70;52.30;;;;;;5008032;28;20479;-79
2023/07/24 08:46:45;;;;;;;8.25;4.97;;;27.80;51.30;;;;;;4995919;28;20105;-79
2023/07/24 08:49:14;;;;;;;9.38;6.20;;;28.00;52.50;;;;;;4996279;28;20124;-80
2023/07/24 08:51:45;;;;;;;8.10;5.53;;;28.20;51.50;;;;;;5008136;28;20065;-79
2023/07/24 08:54:12;;;;;;;7.63;5.13;;;28.20;51.10;;;;;;5002891;28;20121;-79
2023/07/24 08:56:40;;;;;;;6.18;5.10;;;28.20;51.00;;;;;;5007237;28;20046;-79
2023/07/24 08:59:05;;;;;;;7.25;4.97;;;28.20;50.30;;;;;;5008773;28;20038;-79
2023/07/24 09:01:31;;;;;;;9.57;5.32;;;28.40;50.70;;;;;;5006555;28;20105;-79
2023/07/24 09:03:57;;;;;;;7.35;4.90;;;28.40;49.50;;;;;;5002746;28;20045;-79
2023/07/24 09:06:23;;;;;;;9.40;5.10;;;28.40;50.00;;;;;;5009088;28;20475;-77
2023/07/24 09:08:48;;;;;;;9.32;5.25;;;28.40;49.70;;;;;;5002727;28;20038;-78
2023/07/24 09:11:14;;;;;;;6.68;5.10;;;28.20;50.50;;;;;;5009389;28;20022;-77
2023/07/24 09:13:43;;;;;;;7.18;5.65;;;28.40;50.40;;;;;;5010046;28;20117;-77
2023/07/24 09:16:20;;;;;;;6.20;4.80;;;28.60;50.20;;;;;;5007244;28;20072;-78
2023/07/24 09:18:45;;;;;;;7.88;5.88;;;28.80;49.90;;;;;;5008272;28;20037;-77
2023/07/24 09:21:14;;;;;;;8.23;5.53;;;29.00;50.20;;;;;;5009797;28;20026;-78
2023/07/24 09:23:43;;;;;;;9.02;5.47;;;29.30;49.40;;;;;;5009317;28;20033;-77
2023/07/24 09:26:09;;;;;;;7.38;5.38;;;29.10;48.60;;;;;;5009751;28;20029;-77
2023/07/24 09:28:35;;;;;;;6.82;5.72;;;29.20;48.40;;;;;;5009674;28;20025;-77
2023/07/24 09:31:01;;;;;;;6.55;4.88;;;29.10;47.50;;;;;;5008509;28;20540;-78
2023/07/24 09:33:38;;;;;;;7.78;5.90;;;28.90;45.90;;;;;;5009571;28;20068;-78
2023/07/24 09:36:07;;;;;;;6.32;5.53;;;28.90;46.80;;;;;;5007916;28;20025;-78
2023/07/24 09:38:32;;;;;;;7.93;5.50;;;29.30;47.40;;;;;;5007335;28;20021;-80
2023/07/24 09:41:00;;;;;;;7.38;5.10;;;29.50;46.80;;;;;;5008048;28;20453;-79
2023/07/24 09:43:28;;;;;;;7.07;5.28;;;29.80;45.40;;;;;;5009606;28;20535;-79
2023/07/24 09:45:54;;;;;;;9.15;5.90;;;29.30;44.60;;;;;;5009392;28;20070;-79
2023/07/24 09:48:23;;;;;;;10.38;5.78;;;28.90;44.00;;;;;;5009431;28;20049;-78
2023/07/24 09:50:52;;;;;;;7.43;5.65;;;28.60;44.80;;;;;;5008569;28;20053;-79
2023/07/24 09:53:38;;;;;;;7.55;5.82;;;28.50;47.40;;;;;;5007802;28;20713;-79
2023/07/24 09:56:07;;;;;;;11.27;5.63;;;28.70;48.60;;;;;;5006032;28;20531;-79
2023/07/24 09:58:35;;;;;;;6.65;5.60;;;29.10;49.30;;;;;;5008561;28;20379;-79
2023/07/24 10:01:03;;;;;;;7.38;5.55;;;29.40;48.90;;;;;;5009368;28;20030;-79
2023/07/24 10:03:30;;;;;;;6.85;5.40;;;29.30;47.70;;;;;;5033480;28;20362;-79
2023/07/24 10:05:56;;;;;;;8.18;5.47;;;29.30;47.60;;;;;;5007620;28;20026;-79
2023/07/24 10:08:22;;;;;;;10.00;5.90;;;29.50;47.50;;;;;;5003676;28;20026;-79
2023/07/24 10:10:51;;;;;;;6.38;5.20;;;29.80;47.30;;;;;;5009184;28;20052;-80
2023/07/24 10:13:18;;;;;;;9.80;5.75;;;29.60;45.80;;;;;;5007797;28;20391;-79
2023/07/24 10:15:45;;;;;;;16.58;6.63;;;29.70;45.00;;;;;;5009108;28;20030;-78
2023/07/24 10:18:11;;;;;;;12.77;5.80;;;29.50;42.70;;;;;;5009031;28;20115;-78
2023/07/24 10:20:39;;;;;;;13.50;6.63;;;29.50;42.40;;;;;;5010783;28;20072;-79
2023/07/24 10:23:10;;;;;;;8.02;6.07;;;29.60;42.50;;;;;;5000104;28;20097;-79
2023/07/24 10:25:43;;;;;;;8.43;6.22;;;29.80;42.20;;;;;;5002034;28;20057;-78
2023/07/24 10:28:11;;;;;;;9.43;6.85;;;29.80;42.70;;;;;;5004880;28;20034;-79
2023/07/24 10:30:38;;;;;;;9.45;6.25;;;29.60;41.90;;;;;;5005959;28;20052;-78
2023/07/24 10:33:13;;;;;;;9.73;6.20;;;29.60;41.70;;;;;;5000804;28;20042;-79
2023/07/24 10:36:07;;;;;;;8.98;5.80;;;29.70;42.40;;;;;;5012390;28;20041;-79
2023/07/24 10:38:37;;;;;;;10.52;6.10;;;30.10;43.60;;;;;;5007163;28;20030;-79
2023/07/24 10:41:04;;;;;;;9.75;6.38;;;30.00;42.50;;;;;;5015787;28;20022;-79
2023/07/24 10:43:49;;;;;;;8.10;6.30;;;29.60;41.80;;;;;;5011020;28;20026;-78
2023/07/24 10:46:19;;;;;;;8.43;5.40;;;29.50;43.10;;;;;;5008144;28;20019;-78
2023/07/24 10:48:50;;;;;;;9.88;6.93;;;29.60;43.30;;;;;;5009626;28;20033;-78
2023/07/24 10:51:15;;;;;;;9.10;6.68;;;29.70;43.40;;;;;;5008454;28;20057;-78
2023/07/24 10:53:47;;;;;;;11.00;7.07;;;29.60;42.90;;;;;;5009696;28;20073;-79
2023/07/24 10:56:13;;;;;;;9.25;6.72;;;29.60;43.20;;;;;;5012226;28;20050;-79
2023/07/24 10:58:39;;;;;;;8.60;6.60;;;29.50;43.70;;;;;;5005866;28;20031;-79
2023/07/24 11:01:06;;;;;;;7.90;6.68;;;29.60;43.90;;;;;;5009442;28;20536;-79
2023/07/24 11:03:31;;;;;;;7.28;6.00;;;29.40;44.10;;;;;;5010119;28;20014;-79
2023/07/24 11:05:58;;;;;;;8.38;6.78;;;29.50;44.00;;;;;;5010843;28;20429;-78
2023/07/24 11:08:24;;;;;;;8.65;5.95;;;29.50;44.70;;;;;;5009189;28;20101;-79
2023/07/24 11:10:55;;;;;;;9.57;6.18;;;29.40;44.80;;;;;;5010552;28;20072;-78
2023/07/24 11:13:23;;;;;;;17.45;7.00;;;29.30;44.70;;;;;;5011683;28;20762;-78
2023/07/24 11:15:49;;;;;;;9.15;6.82;;;29.20;44.80;;;;;;5007723;28;20100;-78
2023/07/24 11:18:16;;;;;;;7.97;6.35;;;29.20;45.20;;;;;;5011259;28;20029;-78
2023/07/24 11:20:47;;;;;;;9.25;6.50;;;29.10;45.60;;;;;;5010633;28;20022;-78
2023/07/24 11:23:13;;;;;;;8.63;6.68;;;29.20;46.30;;;;;;5011086;28;20045;-78
2023/07/24 11:25:39;;;;;;;9.88;7.38;;;29.00;45.90;;;;;;5010946;28;20435;-78
2023/07/24 11:28:06;;;;;;;8.48;6.25;;;28.80;45.20;;;;;;5010491;28;20026;-78
2023/07/24 11:30:32;;;;;;;10.60;6.32;;;28.50;45.30;;;;;;5009708;28;20018;-79
2023/07/24 11:33:00;;;;;;;9.38;6.57;;;28.30;46.00;;;;;;5008110;28;20033;-78
2023/07/24 11:35:26;;;;;;;11.02;7.03;;;28.20;47.00;;;;;;5008350;28;20348;-78
2023/07/24 11:37:52;;;;;;;9.50;6.65;;;28.10;47.90;;;;;;4999575;28;20018;-78
2023/07/24 11:40:19;;;;;;;11.38;7.13;;;28.00;47.70;;;;;;5010233;28;20128;-78
2023/07/24 11:42:49;;;;;;;8.77;7.13;;;28.00;48.30;;;;;;5009083;28;20026;-78
2023/07/24 11:45:15;;;;;;;9.65;6.65;;;27.90;47.90;;;;;;5005921;28;20018;-78
2023/07/24 11:47:49;;;;;;;14.18;7.20;;;27.90;48.50;;;;;;5011657;28;20112;-78
2023/07/24 11:50:16;;;;;;;12.00;8.32;;;27.90;48.80;;;;;;5011368;28;20131;-78
2023/07/24 11:52:44;;;;;;;9.80;7.18;;;27.90;48.50;;;;;;5010812;28;20139;-78
2023/07/24 11:55:30;;;;;;;10.45;6.70;;;28.00;48.90;;;;;;5011580;28;20406;-78
2023/07/24 11:57:57;;;;;;;8.45;6.65;;;28.50;49.20;;;;;;5011718;28;20014;-78
2023/07/24 12:00:23;;;;;;;7.97;6.45;;;28.80;48.20;;;;;;5010533;28;20026;-78
2023/07/24 12:02:50;;;;;;;12.00;7.25;;;28.90;47.60;;;;;;5011618;28;20030;-78
2023/07/24 12:05:16;;;;;;;9.13;6.43;;;29.20;47.90;;;;;;5011754;28;20495;-78
2023/07/24 12:07:46;;;;;;;10.88;7.32;;;29.30;48.20;;;;;;5011539;28;20026;-78
2023/07/24 12:10:13;;;;;;;8.57;6.68;;;29.50;47.10;;;;;;5010505;28;20079;-78
2023/07/24 12:12:46;;;;;;;10.27;6.32;;;29.70;46.70;;;;;;5011333;28;20033;-78
2023/07/24 12:15:14;;;;;;;10.85;6.63;;;29.70;46.10;;;;;;5011503;28;20038;-78
2023/07/24 12:17:42;;;;;;;7.88;6.80;;;29.80;44.30;;;;;;5011479;28;20530;-78
2023/07/24 12:20:09;;;;;;;8.60;6.70;;;29.90;44.80;;;;;;5011597;28;20034;-78
2023/07/24 12:22:36;;;;;;;11.25;6.75;;;30.20;46.10;;;;;;5011176;28;20053;-78
2023/07/24 12:25:02;;;;;;;10.23;7.53;;;30.20;43.20;;;;;;5011331;28;20075;-78
2023/07/24 12:27:28;;;;;;;10.82;7.03;;;30.30;44.00;;;;;;5009886;28;20045;-77
2023/07/24 12:29:54;;;;;;;16.27;7.35;;;30.40;44.50;;;;;;5009093;28;20382;-77
2023/07/24 12:32:20;;;;;;;10.00;7.18;;;30.40;43.60;;;;;;5010799;28;20022;-77
2023/07/24 12:34:50;;;;;;;12.57;8.02;;;30.60;43.50;;;;;;5010625;28;20038;-77
2023/07/24 12:37:16;;;;;;;10.20;7.53;;;30.50;41.60;;;;;;5010067;28;20464;-77
2023/07/24 12:39:46;;;;;;;11.00;7.35;;;30.50;41.90;;;;;;5009651;28;20479;-77
2023/07/24 12:42:13;;;;;;;9.93;7.10;;;30.70;43.10;;;;;;5010918;28;20047;-77